sensor_id;sensor_type;location;lat;lon;timestamp;pressure;altitude;pressure_sealevel;temperature;humidity
35655;BME280;21773;50.010;19.972;2023-04-01T00:00:35;97032.09;;;15.64;43.73
35655;BME280;21773;50.010;19.972;2023-04-01T00:03:38;97035.13;;;15.63;44.00
35655;BME280;21773;50.010;19.972;2023-04-01T00:06:43;97029.38;;;15.64;44.07
35655;BME280;21773;50.010;19.972;2023-04-01T00:09:47;97018.94;;;15.57;44.00
35655;BME280;21773;50.010;19.972;2023-04-01T00:12:50;97025.00;;;15.68;44.15
35655;BME280;21773;50.010;19.972;2023-04-01T00:15:54;97009.78;;;15.53;44.47
35655;BME280;21773;50.010;19.972;2023-04-01T00:19:00;97020.13;;;15.51;44.42
35655;BME280;21773;50.010;19.972;2023-04-01T00:22:05;97016.00;;;15.54;44.39
35655;BME280;21773;50.010;19.972;2023-04-01T00:25:09;97009.44;;;15.55;44.55
35655;BME280;21773;50.010;19.972;2023-04-01T00:28:12;97015.22;;;15.53;44.81
35655;BME280;21773;50.010;19.972;2023-04-01T00:31:17;97004.06;;;15.50;44.81
35655;BME280;21773;50.010;19.972;2023-04-01T00:34:20;96994.44;;;15.44;45.12
35655;BME280;21773;50.010;19.972;2023-04-01T00:37:26;96997.53;;;15.37;45.14
35655;BME280;21773;50.010;19.972;2023-04-01T00:40:32;97000.97;;;15.43;45.02
35655;BME280;21773;50.010;19.972;2023-04-01T00:43:35;96990.91;;;15.43;44.99
35655;BME280;21773;50.010;19.972;2023-04-01T00:46:39;96994.81;;;15.37;45.23
35655;BME280;21773;50.010;19.972;2023-04-01T00:49:46;96997.00;;;15.35;45.61
35655;BME280;21773;50.010;19.972;2023-04-01T00:52:52;96998.53;;;15.41;45.30
35655;BME280;21773;50.010;19.972;2023-04-01T00:56:00;96995.34;;;15.39;45.45
35655;BME280;21773;50.010;19.972;2023-04-01T00:59:08;96992.91;;;15.38;45.46
35655;BME280;21773;50.010;19.972;2023-04-01T01:02:14;96987.56;;;15.33;45.61
35655;BME280;21773;50.010;19.972;2023-04-01T01:05:23;96994.69;;;15.29;45.76
35655;BME280;21773;50.010;19.972;2023-04-01T01:08:55;96994.81;;;15.37;45.67
35655;BME280;21773;50.010;19.972;2023-04-01T01:12:10;96987.28;;;15.34;46.00
35655;BME280;21773;50.010;19.972;2023-04-01T01:15:20;97000.16;;;15.42;45.70
35655;BME280;21773;50.010;19.972;2023-04-01T01:18:32;97014.22;;;15.44;45.61
35655;BME280;21773;50.010;19.972;2023-04-01T01:21:55;97010.22;;;15.42;45.78
35655;BME280;21773;50.010;19.972;2023-04-01T01:25:18;97009.50;;;15.50;45.62
35655;BME280;21773;50.010;19.972;2023-04-01T01:28:37;97010.72;;;15.44;45.79
35655;BME280;21773;50.010;19.972;2023-04-01T01:31:54;97012.31;;;15.45;45.87
35655;BME280;21773;50.010;19.972;2023-04-01T01:35:16;97006.31;;;15.48;45.83
35655;BME280;21773;50.010;19.972;2023-04-01T01:38:24;96999.44;;;15.37;46.08
35655;BME280;21773;50.010;19.972;2023-04-01T01:41:39;97001.63;;;15.35;46.29
35655;BME280;21773;50.010;19.972;2023-04-01T01:44:45;97016.00;;;15.35;46.11
35655;BME280;21773;50.010;19.972;2023-04-01T01:47:51;97014.91;;;15.36;46.35
35655;BME280;21773;50.010;19.972;2023-04-01T01:50:57;97013.00;;;15.37;46.27
35655;BME280;21773;50.010;19.972;2023-04-01T01:54:01;97018.06;;;15.43;46.12
35655;BME280;21773;50.010;19.972;2023-04-01T01:57:09;97016.34;;;15.47;46.06
35655;BME280;21773;50.010;19.972;2023-04-01T02:00:18;97016.66;;;15.46;46.10
35655;BME280;21773;50.010;19.972;2023-04-01T02:03:24;97028.13;;;15.43;46.24
35655;BME280;21773;50.010;19.972;2023-04-01T02:06:32;97015.75;;;15.50;45.81
35655;BME280;21773;50.010;19.972;2023-04-01T02:09:38;97019.38;;;15.46;46.13
35655;BME280;21773;50.010;19.972;2023-04-01T02:12:44;97018.97;;;15.39;46.40
35655;BME280;21773;50.010;19.972;2023-04-01T02:15:50;97020.88;;;15.38;46.01
35655;BME280;21773;50.010;19.972;2023-04-01T02:18:58;97029.22;;;15.42;46.14
35655;BME280;21773;50.010;19.972;2023-04-01T02:22:06;97026.50;;;15.42;46.29
35655;BME280;21773;50.010;19.972;2023-04-01T02:25:14;97028.84;;;15.30;46.58
35655;BME280;21773;50.010;19.972;2023-04-01T02:28:19;97021.53;;;15.30;46.52
35655;BME280;21773;50.010;19.972;2023-04-01T02:31:23;97018.13;;;15.25;46.51
35655;BME280;21773;50.010;19.972;2023-04-01T02:34:27;97021.78;;;15.15;46.91
35655;BME280;21773;50.010;19.972;2023-04-01T02:37:32;97016.81;;;15.03;46.91
35655;BME280;21773;50.010;19.972;2023-04-01T02:40:43;97030.69;;;15.02;47.21
35655;BME280;21773;50.010;19.972;2023-04-01T02:43:47;97032.66;;;14.96;47.28
35655;BME280;21773;50.010;19.972;2023-04-01T02:46:51;97037.00;;;14.97;47.38
35655;BME280;21773;50.010;19.972;2023-04-01T02:49:55;97042.00;;;14.90;47.56
35655;BME280;21773;50.010;19.972;2023-04-01T02:53:02;97052.69;;;14.82;47.79
35655;BME280;21773;50.010;19.972;2023-04-01T02:56:08;97039.84;;;14.87;47.58
35655;BME280;21773;50.010;19.972;2023-04-01T02:59:11;97032.31;;;14.84;47.95
35655;BME280;21773;50.010;19.972;2023-04-01T03:02:15;97032.75;;;14.72;47.71
35655;BME280;21773;50.010;19.972;2023-04-01T03:05:19;97049.97;;;14.82;48.02
35655;BME280;21773;50.010;19.972;2023-04-01T03:08:24;97047.03;;;14.78;48.08
35655;BME280;21773;50.010;19.972;2023-04-01T03:11:27;97050.28;;;14.80;47.90
35655;BME280;21773;50.010;19.972;2023-04-01T03:14:31;97051.59;;;14.83;47.86
35655;BME280;21773;50.010;19.972;2023-04-01T03:17:34;97052.69;;;14.82;47.74
35655;BME280;21773;50.010;19.972;2023-04-01T03:20:37;97050.41;;;14.89;47.89
35655;BME280;21773;50.010;19.972;2023-04-01T03:23:42;97045.66;;;14.99;47.58
35655;BME280;21773;50.010;19.972;2023-04-01T03:26:45;97044.44;;;15.05;47.42
35655;BME280;21773;50.010;19.972;2023-04-01T03:29:49;97038.81;;;15.02;47.52
35655;BME280;21773;50.010;19.972;2023-04-01T03:32:53;97034.63;;;14.91;47.50
35655;BME280;21773;50.010;19.972;2023-04-01T03:35:57;97050.41;;;14.89;47.98
35655;BME280;21773;50.010;19.972;2023-04-01T03:39:02;97044.72;;;14.90;47.96
35655;BME280;21773;50.010;19.972;2023-04-01T03:42:14;97051.50;;;14.88;47.94
35655;BME280;21773;50.010;19.972;2023-04-01T03:45:18;97036.50;;;14.95;47.93
35655;BME280;21773;50.010;19.972;2023-04-01T03:48:21;97041.13;;;14.95;47.91
35655;BME280;21773;50.010;19.972;2023-04-01T03:51:24;97043.22;;;14.98;47.88
35655;BME280;21773;50.010;19.972;2023-04-01T03:54:29;97043.44;;;15.01;47.71
35655;BME280;21773;50.010;19.972;2023-04-01T03:57:33;97044.63;;;14.95;47.77
35655;BME280;21773;50.010;19.972;2023-04-01T04:00:47;97046.66;;;15.03;47.84
35655;BME280;21773;50.010;19.972;2023-04-01T04:03:51;97047.97;;;15.06;47.72
35655;BME280;21773;50.010;19.972;2023-04-01T04:06:56;97055.31;;;15.05;47.76
35655;BME280;21773;50.010;19.972;2023-04-01T04:10:02;97058.34;;;15.04;47.80
35655;BME280;21773;50.010;19.972;2023-04-01T04:13:05;97051.38;;;14.98;47.98
35655;BME280;21773;50.010;19.972;2023-04-01T04:16:14;97066.91;;;14.92;48.35
35655;BME280;21773;50.010;19.972;2023-04-01T04:19:20;97070.16;;;14.94;48.31
35655;BME280;21773;50.010;19.972;2023-04-01T04:22:24;97061.13;;;14.99;48.25
35655;BME280;21773;50.010;19.972;2023-04-01T04:25:29;97059.97;;;15.05;48.12
35655;BME280;21773;50.010;19.972;2023-04-01T04:28:33;97057.31;;;15.00;48.06
35655;BME280;21773;50.010;19.972;2023-04-01T04:31:37;97063.44;;;15.05;47.94
35655;BME280;21773;50.010;19.972;2023-04-01T04:34:41;97068.03;;;15.10;47.93
35655;BME280;21773;50.010;19.972;2023-04-01T04:37:44;97059.06;;;15.09;48.01
35655;BME280;21773;50.010;19.972;2023-04-01T04:40:50;97067.41;;;15.13;47.83
35655;BME280;21773;50.010;19.972;2023-04-01T04:43:55;97066.25;;;15.19;47.78
35655;BME280;21773;50.010;19.972;2023-04-01T04:46:59;97070.63;;;15.15;47.90
35655;BME280;21773;50.010;19.972;2023-04-01T04:50:03;97067.91;;;15.15;47.83
35655;BME280;21773;50.010;19.972;2023-04-01T04:53:09;97064.34;;;15.20;47.64
35655;BME280;21773;50.010;19.972;2023-04-01T04:56:17;97068.00;;;15.29;47.63
35655;BME280;21773;50.010;19.972;2023-04-01T04:59:28;97077.34;;;15.36;47.43
35655;BME280;21773;50.010;19.972;2023-04-01T05:02:39;97072.13;;;15.40;47.31
35655;BME280;21773;50.010;19.972;2023-04-01T05:05:48;97082.09;;;15.44;47.30
35655;BME280;21773;50.010;19.972;2023-04-01T05:08:53;97076.94;;;15.29;47.61
35655;BME280;21773;50.010;19.972;2023-04-01T05:11:58;97070.31;;;15.35;47.47
35655;BME280;21773;50.010;19.972;2023-04-01T05:15:10;97075.47;;;15.37;47.53
35655;BME280;21773;50.010;19.972;2023-04-01T05:18:14;97080.06;;;15.36;47.52
35655;BME280;21773;50.010;19.972;2023-04-01T05:21:17;97080.88;;;15.37;47.75
35655;BME280;21773;50.010;19.972;2023-04-01T05:24:21;97084.41;;;15.37;47.88
35655;BME280;21773;50.010;19.972;2023-04-01T05:27:27;97083.69;;;15.32;48.66
35655;BME280;21773;50.010;19.972;2023-04-01T05:30:30;97080.97;;;15.32;48.97
35655;BME280;21773;50.010;19.972;2023-04-01T05:33:36;97079.66;;;15.29;49.36
35655;BME280;21773;50.010;19.972;2023-04-01T05:36:39;97069.16;;;15.23;49.43
35655;BME280;21773;50.010;19.972;2023-04-01T05:39:43;97068.06;;;15.24;49.48
35655;BME280;21773;50.010;19.972;2023-04-01T05:42:48;97069.41;;;15.40;49.51
35655;BME280;21773;50.010;19.972;2023-04-01T05:45:52;97078.34;;;15.59;49.20
35655;BME280;21773;50.010;19.972;2023-04-01T05:49:12;97074.88;;;15.58;49.24
35655;BME280;21773;50.010;19.972;2023-04-01T05:52:15;97070.84;;;15.70;48.87
35655;BME280;21773;50.010;19.972;2023-04-01T05:55:18;97078.19;;;15.69;49.19
35655;BME280;21773;50.010;19.972;2023-04-01T05:58:25;97078.63;;;15.76;48.84
35655;BME280;21773;50.010;19.972;2023-04-01T06:01:29;97071.81;;;15.92;48.46
35655;BME280;21773;50.010;19.972;2023-04-01T06:04:36;97074.84;;;16.04;48.18
35655;BME280;21773;50.010;19.972;2023-04-01T06:07:41;97073.13;;;16.09;48.01
35655;BME280;21773;50.010;19.972;2023-04-01T06:10:55;97071.53;;;16.21;47.59
35655;BME280;21773;50.010;19.972;2023-04-01T06:14:22;97071.53;;;16.35;47.40
35655;BME280;21773;50.010;19.972;2023-04-01T06:17:43;97057.13;;;16.34;47.22
35655;BME280;21773;50.010;19.972;2023-04-01T06:20:57;97063.66;;;16.47;46.91
35655;BME280;21773;50.010;19.972;2023-04-01T06:24:16;97071.13;;;16.55;46.83
35655;BME280;21773;50.010;19.972;2023-04-01T06:27:40;97074.66;;;16.56;46.89
35655;BME280;21773;50.010;19.972;2023-04-01T06:30:57;97073.25;;;16.58;46.52
35655;BME280;21773;50.010;19.972;2023-04-01T06:34:28;97069.31;;;16.51;46.43
35655;BME280;21773;50.010;19.972;2023-04-01T06:37:57;97076.84;;;16.54;46.54
35655;BME280;21773;50.010;19.972;2023-04-01T06:41:38;97080.69;;;16.53;46.63
35655;BME280;21773;50.010;19.972;2023-04-01T06:45:02;97081.50;;;16.67;46.37
35655;BME280;21773;50.010;19.972;2023-04-01T06:48:38;97084.63;;;16.74;46.10
35655;BME280;21773;50.010;19.972;2023-04-01T06:52:12;97080.94;;;16.92;45.76
35655;BME280;21773;50.010;19.972;2023-04-01T06:55:42;97083.38;;;17.29;45.25
35655;BME280;21773;50.010;19.972;2023-04-01T06:58:53;97079.53;;;17.53;44.38
35655;BME280;21773;50.010;19.972;2023-04-01T07:02:02;97083.16;;;17.62;43.89
35655;BME280;21773;50.010;19.972;2023-04-01T07:05:11;97076.38;;;17.59;43.82
35655;BME280;21773;50.010;19.972;2023-04-01T07:08:20;97068.72;;;17.39;43.28
35655;BME280;21773;50.010;19.972;2023-04-01T07:11:29;97088.00;;;17.51;43.27
35655;BME280;21773;50.010;19.972;2023-04-01T07:14:53;97083.25;;;17.35;43.06
35655;BME280;21773;50.010;19.972;2023-04-01T07:18:03;97087.31;;;17.23;43.64
35655;BME280;21773;50.010;19.972;2023-04-01T07:21:22;97076.38;;;17.37;43.30
35655;BME280;21773;50.010;19.972;2023-04-01T07:24:32;97079.78;;;17.43;43.34
35655;BME280;21773;50.010;19.972;2023-04-01T07:27:40;97088.19;;;17.32;43.23
35655;BME280;21773;50.010;19.972;2023-04-01T07:30:52;97058.78;;;17.21;42.93
35655;BME280;21773;50.010;19.972;2023-04-01T07:34:04;97083.59;;;17.19;43.09
35655;BME280;21773;50.010;19.972;2023-04-01T07:37:16;97073.94;;;17.13;43.19
35655;BME280;21773;50.010;19.972;2023-04-01T07:40:28;97069.56;;;17.48;43.00
35655;BME280;21773;50.010;19.972;2023-04-01T07:43:45;97083.88;;;17.76;42.24
35655;BME280;21773;50.010;19.972;2023-04-01T07:47:09;97077.69;;;17.62;42.34
35655;BME280;21773;50.010;19.972;2023-04-01T07:50:21;97076.25;;;17.64;42.29
35655;BME280;21773;50.010;19.972;2023-04-01T07:53:33;97078.84;;;17.69;42.18
35655;BME280;21773;50.010;19.972;2023-04-01T07:56:43;97087.50;;;17.63;42.26
35655;BME280;21773;50.010;19.972;2023-04-01T07:59:59;97081.06;;;17.59;42.18
35655;BME280;21773;50.010;19.972;2023-04-01T08:03:42;97088.13;;;17.46;42.32
35655;BME280;21773;50.010;19.972;2023-04-01T08:06:55;97089.00;;;17.33;42.69
35655;BME280;21773;50.010;19.972;2023-04-01T08:10:07;97085.47;;;17.32;42.84
35655;BME280;21773;50.010;19.972;2023-04-01T08:13:40;97083.56;;;17.33;42.67
35655;BME280;21773;50.010;19.972;2023-04-01T08:17:08;97093.53;;;17.38;42.65
35655;BME280;21773;50.010;19.972;2023-04-01T08:20:27;97106.22;;;17.42;42.73
35655;BME280;21773;50.010;19.972;2023-04-01T08:23:36;97091.38;;;17.70;42.01
35655;BME280;21773;50.010;19.972;2023-04-01T08:26:45;97111.19;;;17.85;41.45
35655;BME280;21773;50.010;19.972;2023-04-01T08:29:57;97101.88;;;18.08;41.57
35655;BME280;21773;50.010;19.972;2023-04-01T08:33:09;97102.31;;;18.01;41.13
35655;BME280;21773;50.010;19.972;2023-04-01T08:36:16;97102.31;;;17.79;41.68
35655;BME280;21773;50.010;19.972;2023-04-01T08:39:30;97095.47;;;17.82;41.46
35655;BME280;21773;50.010;19.972;2023-04-01T08:42:50;97081.31;;;18.02;41.93
35655;BME280;21773;50.010;19.972;2023-04-01T08:49:38;97085.72;;;18.59;40.48
35655;BME280;21773;50.010;19.972;2023-04-01T08:53:07;97089.00;;;18.87;39.60
35655;BME280;21773;50.010;19.972;2023-04-01T08:56:18;97090.53;;;18.63;39.62
35655;BME280;21773;50.010;19.972;2023-04-01T08:59:38;97085.00;;;19.02;39.50
35655;BME280;21773;50.010;19.972;2023-04-01T09:03:26;97085.44;;;19.99;38.11
35655;BME280;21773;50.010;19.972;2023-04-01T09:06:43;97097.56;;;19.63;37.94
35655;BME280;21773;50.010;19.972;2023-04-01T09:13:53;97092.22;;;21.27;34.29
35655;BME280;21773;50.010;19.972;2023-04-01T09:20:51;97079.13;;;20.53;35.94
35655;BME280;21773;50.010;19.972;2023-04-01T09:24:35;97091.00;;;20.19;36.55
35655;BME280;21773;50.010;19.972;2023-04-01T09:27:45;97087.97;;;20.12;36.90
35655;BME280;21773;50.010;19.972;2023-04-01T09:31:17;97084.22;;;20.25;36.49
35655;BME280;21773;50.010;19.972;2023-04-01T09:34:54;97083.22;;;20.77;35.59
35655;BME280;21773;50.010;19.972;2023-04-01T09:38:18;97086.78;;;20.68;35.84
35655;BME280;21773;50.010;19.972;2023-04-01T09:41:36;97091.72;;;21.04;34.92
35655;BME280;21773;50.010;19.972;2023-04-01T09:44:58;97089.81;;;20.75;35.96
35655;BME280;21773;50.010;19.972;2023-04-01T09:48:12;97092.53;;;20.46;36.49
35655;BME280;21773;50.010;19.972;2023-04-01T09:51:29;97100.31;;;20.27;36.62
35655;BME280;21773;50.010;19.972;2023-04-01T09:54:53;97097.84;;;19.96;37.37
35655;BME280;21773;50.010;19.972;2023-04-01T09:58:34;97096.28;;;19.69;37.69
35655;BME280;21773;50.010;19.972;2023-04-01T10:02:50;97104.31;;;19.57;38.63
35655;BME280;21773;50.010;19.972;2023-04-01T10:10:27;97108.50;;;19.20;39.07
35655;BME280;21773;50.010;19.972;2023-04-01T10:17:41;97120.78;;;18.83;40.19
35655;BME280;21773;50.010;19.972;2023-04-01T10:21:15;97126.28;;;18.52;41.16
35655;BME280;21773;50.010;19.972;2023-04-01T10:24:39;97123.47;;;18.35;41.55
35655;BME280;21773;50.010;19.972;2023-04-01T10:28:09;97129.84;;;18.22;41.84
35655;BME280;21773;50.010;19.972;2023-04-01T10:32:02;97148.34;;;18.03;42.28
35655;BME280;21773;50.010;19.972;2023-04-01T10:39:19;97139.94;;;17.91;42.45
35655;BME280;21773;50.010;19.972;2023-04-01T10:43:17;97128.09;;;17.95;42.94
35655;BME280;21773;50.010;19.972;2023-04-01T10:47:08;97132.94;;;17.98;43.10
35655;BME280;21773;50.010;19.972;2023-04-01T10:50:43;97141.31;;;18.10;42.94
35655;BME280;21773;50.010;19.972;2023-04-01T10:54:20;97139.56;;;18.14;42.84
35655;BME280;21773;50.010;19.972;2023-04-01T11:02:04;97141.81;;;18.83;40.77
35655;BME280;21773;50.010;19.972;2023-04-01T11:13:08;97127.09;;;20.13;37.51
35655;BME280;21773;50.010;19.972;2023-04-01T11:20:11;97121.66;;;19.27;38.86
35655;BME280;21773;50.010;19.972;2023-04-01T11:23:36;97129.22;;;19.30;39.11
35655;BME280;21773;50.010;19.972;2023-04-01T11:26:55;97135.81;;;19.20;39.37
35655;BME280;21773;50.010;19.972;2023-04-01T11:30:29;97098.69;;;19.11;39.31
35655;BME280;21773;50.010;19.972;2023-04-01T11:33:40;97123.28;;;19.28;38.84
35655;BME280;21773;50.010;19.972;2023-04-01T11:36:58;97117.19;;;20.46;38.22
35655;BME280;21773;50.010;19.972;2023-04-01T11:40:19;97114.34;;;21.22;35.86
35655;BME280;21773;50.010;19.972;2023-04-01T11:43:51;97120.66;;;21.64;34.04
35655;BME280;21773;50.010;19.972;2023-04-01T11:47:35;97118.94;;;21.92;33.74
35655;BME280;21773;50.010;19.972;2023-04-01T11:50:57;97129.41;;;21.57;34.09
35655;BME280;21773;50.010;19.972;2023-04-01T11:54:18;97129.16;;;21.30;35.54
35655;BME280;21773;50.010;19.972;2023-04-01T11:57:43;97126.78;;;20.90;37.88
35655;BME280;21773;50.010;19.972;2023-04-01T12:00:59;97135.53;;;20.46;38.94
35655;BME280;21773;50.010;19.972;2023-04-01T12:08:06;97131.56;;;20.09;40.64
35655;BME280;21773;50.010;19.972;2023-04-01T12:11:17;97122.34;;;20.77;39.35
35655;BME280;21773;50.010;19.972;2023-04-01T12:14:30;97128.06;;;20.93;38.24
35655;BME280;21773;50.010;19.972;2023-04-01T12:17:41;97132.59;;;21.18;37.36
35655;BME280;21773;50.010;19.972;2023-04-01T12:20:50;97135.88;;;21.74;36.38
35655;BME280;21773;50.010;19.972;2023-04-01T12:27:47;97139.78;;;21.85;35.07
35655;BME280;21773;50.010;19.972;2023-04-01T12:31:06;97136.09;;;21.27;36.15
35655;BME280;21773;50.010;19.972;2023-04-01T12:34:39;97152.09;;;20.87;36.89
35655;BME280;21773;50.010;19.972;2023-04-01T12:37:53;97137.38;;;20.71;37.28
35655;BME280;21773;50.010;19.972;2023-04-01T12:41:09;97142.66;;;21.05;36.59
35655;BME280;21773;50.010;19.972;2023-04-01T12:44:33;97146.66;;;21.37;36.58
35655;BME280;21773;50.010;19.972;2023-04-01T12:47:57;97139.56;;;21.15;35.97
35655;BME280;21773;50.010;19.972;2023-04-01T12:51:35;97145.34;;;20.85;36.53
35655;BME280;21773;50.010;19.972;2023-04-01T12:55:01;97139.97;;;20.59;36.92
35655;BME280;21773;50.010;19.972;2023-04-01T13:02:00;97157.97;;;20.05;37.86
35655;BME280;21773;50.010;19.972;2023-04-01T13:05:20;97155.13;;;19.67;38.77
35655;BME280;21773;50.010;19.972;2023-04-01T13:08:37;97158.66;;;19.50;39.88
35655;BME280;21773;50.010;19.972;2023-04-01T13:11:55;97163.94;;;19.38;40.21
35655;BME280;21773;50.010;19.972;2023-04-01T13:15:14;97161.84;;;19.35;40.88
35655;BME280;21773;50.010;19.972;2023-04-01T13:18:30;97164.78;;;19.47;41.48
35655;BME280;21773;50.010;19.972;2023-04-01T13:21:44;97162.53;;;19.49;40.79
35655;BME280;21773;50.010;19.972;2023-04-01T13:24:58;97172.16;;;19.46;40.17
35655;BME280;21773;50.010;19.972;2023-04-01T13:28:09;97165.44;;;19.53;39.85
35655;BME280;21773;50.010;19.972;2023-04-01T13:31:38;97178.06;;;19.14;41.53
35655;BME280;21773;50.010;19.972;2023-04-01T13:34:59;97173.41;;;18.67;42.02
35655;BME280;21773;50.010;19.972;2023-04-01T13:38:32;97178.66;;;18.54;42.60
35655;BME280;21773;50.010;19.972;2023-04-01T13:42:02;97185.38;;;18.57;43.37
35655;BME280;21773;50.010;19.972;2023-04-01T13:45:13;97175.34;;;18.66;42.79
35655;BME280;21773;50.010;19.972;2023-04-01T13:48:35;97187.09;;;18.53;43.73
35655;BME280;21773;50.010;19.972;2023-04-01T13:52:10;97198.00;;;18.44;44.38
35655;BME280;21773;50.010;19.972;2023-04-01T13:55:26;97191.56;;;18.40;44.58
35655;BME280;21773;50.010;19.972;2023-04-01T13:58:47;97193.09;;;18.33;44.08
35655;BME280;21773;50.010;19.972;2023-04-01T14:02:01;97188.84;;;18.18;44.53
35655;BME280;21773;50.010;19.972;2023-04-01T14:09:29;97171.34;;;17.66;44.79
35655;BME280;21773;50.010;19.972;2023-04-01T14:12:42;97191.22;;;17.89;44.75
35655;BME280;21773;50.010;19.972;2023-04-01T14:16:03;97179.84;;;17.87;44.93
35655;BME280;21773;50.010;19.972;2023-04-01T14:19:22;97182.97;;;17.80;44.97
35655;BME280;21773;50.010;19.972;2023-04-01T14:22:37;97184.22;;;17.96;44.76
35655;BME280;21773;50.010;19.972;2023-04-01T14:25:55;97178.03;;;17.82;44.97
35655;BME280;21773;50.010;19.972;2023-04-01T14:29:09;97182.56;;;17.87;45.12
35655;BME280;21773;50.010;19.972;2023-04-01T14:32:27;97191.59;;;17.96;45.29
35655;BME280;21773;50.010;19.972;2023-04-01T14:35:37;97184.22;;;17.96;45.33
35655;BME280;21773;50.010;19.972;2023-04-01T14:38:54;97195.75;;;17.93;45.38
35655;BME280;21773;50.010;19.972;2023-04-01T14:45:49;97190.91;;;17.90;45.86
35655;BME280;21773;50.010;19.972;2023-04-01T14:48:57;97198.59;;;17.66;46.64
35655;BME280;21773;50.010;19.972;2023-04-01T14:52:09;97190.41;;;17.66;46.58
35655;BME280;21773;50.010;19.972;2023-04-01T14:55:23;97191.03;;;17.63;46.94
35655;BME280;21773;50.010;19.972;2023-04-01T14:58:43;97191.03;;;17.63;47.06
35655;BME280;21773;50.010;19.972;2023-04-01T15:01:50;97200.09;;;17.72;47.03
35655;BME280;21773;50.010;19.972;2023-04-01T15:05:08;97197.19;;;17.68;47.30
35655;BME280;21773;50.010;19.972;2023-04-01T15:08:21;97198.88;;;17.64;47.32
35655;BME280;21773;50.010;19.972;2023-04-01T15:11:36;97189.94;;;17.64;47.54
35655;BME280;21773;50.010;19.972;2023-04-01T15:14:53;97188.81;;;17.51;48.00
35655;BME280;21773;50.010;19.972;2023-04-01T15:18:08;97215.84;;;17.61;48.00
35655;BME280;21773;50.010;19.972;2023-04-01T15:21:29;97214.41;;;17.78;47.83
35655;BME280;21773;50.010;19.972;2023-04-01T15:24:43;97215.22;;;17.78;48.26
35655;BME280;21773;50.010;19.972;2023-04-01T15:27:53;97215.50;;;17.77;48.12
35655;BME280;21773;50.010;19.972;2023-04-01T15:31:05;97215.25;;;17.51;48.63
35655;BME280;21773;50.010;19.972;2023-04-01T15:34:32;97216.88;;;17.52;48.67
35655;BME280;21773;50.010;19.972;2023-04-01T15:37:48;97234.94;;;17.48;49.32
35655;BME280;21773;50.010;19.972;2023-04-01T15:41:01;97238.91;;;17.28;50.28
35655;BME280;21773;50.010;19.972;2023-04-01T15:44:39;97245.97;;;17.15;50.70
35655;BME280;21773;50.010;19.972;2023-04-01T15:47:58;97242.75;;;17.13;51.65
35655;BME280;21773;50.010;19.972;2023-04-01T15:51:11;97243.56;;;17.14;52.31
35655;BME280;21773;50.010;19.972;2023-04-01T15:54:54;97244.47;;;17.09;52.68
35655;BME280;21773;50.010;19.972;2023-04-01T15:58:24;97251.75;;;17.00;52.85
35655;BME280;21773;50.010;19.972;2023-04-01T16:01:38;97243.69;;;16.95;52.84
35655;BME280;21773;50.010;19.972;2023-04-01T16:04:54;97252.75;;;16.91;53.12
35655;BME280;21773;50.010;19.972;2023-04-01T16:08:11;97252.22;;;16.75;52.90
35655;BME280;21773;50.010;19.972;2023-04-01T16:11:23;97266.41;;;16.72;52.96
35655;BME280;21773;50.010;19.972;2023-04-01T16:14:40;97259.56;;;16.74;53.31
35655;BME280;21773;50.010;19.972;2023-04-01T16:18:04;97267.44;;;16.76;53.21
35655;BME280;21773;50.010;19.972;2023-04-01T16:21:24;97278.00;;;16.77;53.75
35655;BME280;21773;50.010;19.972;2023-04-01T16:24:35;97274.28;;;16.73;54.27
35655;BME280;21773;50.010;19.972;2023-04-01T16:27:46;97280.81;;;16.72;54.07
35655;BME280;21773;50.010;19.972;2023-04-01T16:30:58;97288.78;;;16.69;54.26
35655;BME280;21773;50.010;19.972;2023-04-01T16:34:08;97266.97;;;16.55;54.38
35655;BME280;21773;50.010;19.972;2023-04-01T16:37:17;97289.94;;;16.49;54.76
35655;BME280;21773;50.010;19.972;2023-04-01T16:40:37;97291.09;;;16.43;55.80
35655;BME280;21773;50.010;19.972;2023-04-01T16:43:48;97288.72;;;16.23;56.35
35655;BME280;21773;50.010;19.972;2023-04-01T16:46:58;97300.50;;;16.18;56.60
35655;BME280;21773;50.010;19.972;2023-04-01T16:50:17;97299.56;;;16.09;56.90
35655;BME280;21773;50.010;19.972;2023-04-01T16:53:36;97307.22;;;16.07;56.87
35655;BME280;21773;50.010;19.972;2023-04-01T16:56:44;97314.56;;;16.07;57.22
35655;BME280;21773;50.010;19.972;2023-04-01T16:59:55;97318.81;;;15.94;57.65
35655;BME280;21773;50.010;19.972;2023-04-01T17:03:10;97326.53;;;15.87;57.43
35655;BME280;21773;50.010;19.972;2023-04-01T17:06:28;97323.34;;;15.80;56.56
35655;BME280;21773;50.010;19.972;2023-04-01T17:09:48;97327.03;;;15.70;56.29
35655;BME280;21773;50.010;19.972;2023-04-01T17:13:09;97336.94;;;15.61;56.30
35655;BME280;21773;50.010;19.972;2023-04-01T17:16:46;97340.31;;;15.53;56.28
35655;BME280;21773;50.010;19.972;2023-04-01T17:20:03;97343.38;;;15.41;56.32
35655;BME280;21773;50.010;19.972;2023-04-01T17:23:17;97343.16;;;15.38;56.62
35655;BME280;21773;50.010;19.972;2023-04-01T17:26:33;97347.72;;;15.42;56.26
35655;BME280;21773;50.010;19.972;2023-04-01T17:29:58;97362.41;;;15.41;56.68
35655;BME280;21773;50.010;19.972;2023-04-01T17:37:05;97367.06;;;15.36;57.03
35655;BME280;21773;50.010;19.972;2023-04-01T17:40:35;97364.34;;;15.36;56.86
35655;BME280;21773;50.010;19.972;2023-04-01T17:43:48;97367.44;;;15.29;57.03
35655;BME280;21773;50.010;19.972;2023-04-01T17:47:09;97371.53;;;15.27;57.07
35655;BME280;21773;50.010;19.972;2023-04-01T17:50:22;97368.81;;;15.27;56.92
35655;BME280;21773;50.010;19.972;2023-04-01T17:53:34;97369.91;;;15.26;56.97
35655;BME280;21773;50.010;19.972;2023-04-01T17:56:47;97387.53;;;15.28;57.04
35655;BME280;21773;50.010;19.972;2023-04-01T17:59:59;97386.66;;;15.33;56.79